Time;durP1;ratioP1;P1;durP2;ratioP2;P2;SDS_P1;SDS_P2;PMS_P1;PMS_P2;Temp;Humidity;BMP_temperature;BMP_pressure;BME280_temperature;BME280_humidity;BME280_pressure;Samples;Min_cycle;Max_cycle;Signal;HPM_P1;HPM_P2
2021/12/03 00:00:44;;;;;;;;;;;27.20;99.90;;;;;;5056179;28;19913;-70
2021/12/03 00:03:11;;;;;;;;;;;27.30;99.90;;;;;;5057302;28;19913;-68
2021/12/03 00:05:38;;;;;;;;;;;27.40;99.90;;;;;;5055946;28;20007;-71
2021/12/03 00:08:05;;;;;;;;;;;27.30;99.90;;;;;;5059972;28;19920;-69
2021/12/03 00:10:34;;;;;;;;;;;27.30;99.90;;;;;;5073955;28;20015;-70
2021/12/03 00:13:01;;;;;;;;;;;27.40;99.90;;;;;;5073163;28;20468;-69
2021/12/03 00:15:28;;;;;;;;;;;27.40;99.90;;;;;;5069993;28;19995;-69
2021/12/03 00:17:54;;;;;;;;;;;27.50;99.90;;;;;;5073085;28;19974;-70
2021/12/03 00:20:22;;;;;;;;;;;27.40;99.90;;;;;;5073207;28;19944;-70
2021/12/03 00:22:51;;;;;;;;;;;27.40;99.90;;;;;;5073277;28;20251;-69
2021/12/03 00:25:19;;;;;;;;;;;27.60;99.90;;;;;;5072999;28;19916;-69
2021/12/03 00:27:46;;;;;;;;;;;27.60;99.90;;;;;;5073081;28;19913;-71
2021/12/03 00:30:14;;;;;;;;;;;27.70;99.90;;;;;;5072325;28;19919;-66
2021/12/03 00:32:41;;;;;;;;;;;27.90;99.90;;;;;;5072972;28;20670;-72
2021/12/03 00:35:09;;;;;;;;;;;27.90;99.90;;;;;;5072847;28;20262;-72
2021/12/03 00:37:37;;;;;;;;;;;28.00;99.90;;;;;;5073311;28;19912;-72
2021/12/03 00:40:05;;;;;;;;;;;27.90;99.90;;;;;;5072273;28;19912;-71
2021/12/03 00:42:33;;;;;;;;;;;27.50;99.90;;;;;;5073140;28;19917;-72
2021/12/03 00:44:59;;;;;;;;;;;27.30;99.90;;;;;;5072507;28;19959;-72
2021/12/03 00:47:27;;;;;;;;;;;26.80;99.90;;;;;;5072963;28;19912;-70
2021/12/03 00:49:54;;;;;;;;;;;26.90;99.90;;;;;;5071307;28;20274;-71
2021/12/03 00:52:21;;;;;;;;;;;27.00;99.90;;;;;;5072991;28;20370;-72
2021/12/03 00:54:49;;;;;;;;;;;27.10;99.90;;;;;;5072451;28;19927;-68
2021/12/03 00:57:16;;;;;;;;;;;27.10;99.90;;;;;;5072737;28;19912;-68
2021/12/03 00:59:43;;;;;;;;;;;27.00;99.90;;;;;;5072161;28;19912;-69
2021/12/03 01:02:09;;;;;;;;;;;26.80;99.90;;;;;;5072370;28;20004;-68
2021/12/03 01:04:36;;;;;;;;;;;26.70;99.90;;;;;;5072103;28;19913;-67
2021/12/03 01:07:03;;;;;;;;;;;26.80;99.90;;;;;;5072335;28;20460;-66
2021/12/03 01:09:31;;;;;;;;;;;26.80;99.90;;;;;;5059463;28;19921;-66
2021/12/03 01:11:58;;;;;;;;;;;26.70;99.90;;;;;;5054555;28;20412;-70
2021/12/03 01:14:25;;;;;;;;;;;26.70;99.90;;;;;;5054526;28;20339;-66
2021/12/03 01:16:52;;;;;;;;;;;26.20;99.90;;;;;;5056529;28;19919;-71
2021/12/03 01:19:18;;;;;;;;;;;26.30;99.90;;;;;;5054302;28;19912;-66
2021/12/03 01:21:46;;;;;;;;;;;25.90;99.90;;;;;;5056001;28;19917;-67
2021/12/03 01:24:13;;;;;;;;;;;25.70;99.90;;;;;;5054210;28;19920;-69
2021/12/03 01:26:41;;;;;;;;;;;26.00;99.90;;;;;;5055672;28;20371;-66
2021/12/03 01:29:08;;;;;;;;;;;26.10;99.90;;;;;;5054113;28;20194;-66
2021/12/03 01:31:35;;;;;;;;;;;25.60;99.90;;;;;;5054715;28;20395;-67
2021/12/03 01:34:02;;;;;;;;;;;25.30;99.90;;;;;;5054460;28;19916;-68
2021/12/03 01:36:28;;;;;;;;;;;25.50;99.90;;;;;;5054543;28;19940;-73
2021/12/03 01:38:56;;;;;;;;;;;25.40;99.90;;;;;;5067441;28;19917;-72
2021/12/03 01:41:22;;;;;;;;;;;25.00;99.90;;;;;;5059106;28;20003;-71
2021/12/03 01:43:51;;;;;;;;;;;25.10;99.90;;;;;;5055074;28;19913;-71
2021/12/03 01:46:19;;;;;;;;;;;25.20;99.90;;;;;;5054223;28;19920;-72
2021/12/03 01:48:46;;;;;;;;;;;25.30;99.90;;;;;;5054977;28;19913;-67
2021/12/03 01:51:13;;;;;;;;;;;25.10;99.90;;;;;;5053775;28;19921;-67
2021/12/03 01:53:41;;;;;;;;;;;25.10;99.90;;;;;;5055650;28;20638;-73
2021/12/03 01:56:11;;;;;;;;;;;24.90;99.90;;;;;;5053538;28;20008;-70
2021/12/03 01:58:39;;;;;;;;;;;25.00;99.90;;;;;;5055852;28;19931;-70
2021/12/03 02:01:08;;;;;;;;;;;24.90;99.90;;;;;;5035844;28;19938;-71
2021/12/03 02:03:36;;;;;;;;;;;24.70;99.90;;;;;;5054941;28;19920;-71
2021/12/03 02:06:04;;;;;;;;;;;24.80;99.90;;;;;;5053347;28;19959;-73
2021/12/03 02:08:31;;;;;;;;;;;24.70;99.90;;;;;;5061544;28;20041;-71
2021/12/03 02:10:57;;;;;;;;;;;24.80;99.90;;;;;;5069294;28;19919;-70
2021/12/03 02:13:24;;;;;;;;;;;24.90;99.90;;;;;;5071091;28;19921;-68
2021/12/03 02:15:51;;;;;;;;;;;24.80;99.90;;;;;;5071222;28;19913;-66
2021/12/03 02:18:18;;;;;;;;;;;24.80;99.90;;;;;;5070988;28;20008;-69
2021/12/03 02:20:49;;;;;;;;;;;24.80;99.90;;;;;;5071004;28;19920;-70
2021/12/03 02:23:16;;;;;;;;;;;24.70;99.90;;;;;;5070946;28;19924;-68
2021/12/03 02:25:43;;;;;;;;;;;24.70;99.90;;;;;;5070722;28;19938;-72
2021/12/03 02:28:10;;;;;;;;;;;24.70;99.90;;;;;;5070702;28;20274;-73
2021/12/03 02:30:37;;;;;;;;;;;24.90;99.90;;;;;;5071051;28;19912;-73
2021/12/03 02:33:04;;;;;;;;;;;25.00;99.90;;;;;;5070581;28;19920;-71
2021/12/03 02:35:31;;;;;;;;;;;24.90;99.90;;;;;;5069657;28;19964;-72
2021/12/03 02:37:58;;;;;;;;;;;24.90;99.90;;;;;;5071290;28;19919;-71
2021/12/03 02:40:25;;;;;;;;;;;24.80;99.90;;;;;;5070472;28;20321;-72
2021/12/03 02:42:52;;;;;;;;;;;25.00;99.90;;;;;;5069719;28;20154;-72
2021/12/03 02:45:19;;;;;;;;;;;25.10;99.90;;;;;;5070438;28;20424;-72
2021/12/03 02:47:46;;;;;;;;;;;25.20;99.90;;;;;;5069604;28;20010;-70
2021/12/03 02:50:14;;;;;;;;;;;25.10;99.90;;;;;;5070563;28;19920;-74
2021/12/03 02:52:41;;;;;;;;;;;25.00;99.90;;;;;;5070824;28;20015;-72
2021/12/03 02:55:08;;;;;;;;;;;24.90;99.90;;;;;;5070525;28;19912;-74
2021/12/03 02:57:35;;;;;;;;;;;24.90;99.90;;;;;;5071044;28;19999;-69
2021/12/03 03:00:04;;;;;;;;;;;24.80;99.90;;;;;;5070530;28;19932;-71
2021/12/03 03:02:31;;;;;;;;;;;24.80;99.90;;;;;;5070867;28;19913;-71
2021/12/03 03:04:57;;;;;;;;;;;24.90;99.90;;;;;;5070574;28;19912;-68
2021/12/03 03:07:24;;;;;;;;;;;24.60;99.90;;;;;;5070720;28;20003;-69
2021/12/03 03:09:51;;;;;;;;;;;24.80;99.90;;;;;;5058340;28;19928;-73
2021/12/03 03:12:17;;;;;;;;;;;24.70;99.90;;;;;;5038145;28;19929;-73
2021/12/03 03:14:50;;;;;;;;;;;24.70;99.90;;;;;;5056898;28;20360;-74
2021/12/03 03:17:18;;;;;;;;;;;24.80;99.90;;;;;;5057801;28;19920;-72
2021/12/03 03:19:44;;;;;;;;;;;24.90;99.90;;;;;;5056706;28;19923;-69
2021/12/03 03:22:11;;;;;;;;;;;24.90;99.90;;;;;;5059403;28;19912;-67
2021/12/03 03:24:38;;;;;;;;;;;24.80;99.90;;;;;;5056766;28;20448;-69
2021/12/03 03:27:05;;;;;;;;;;;24.50;99.90;;;;;;5057998;28;20003;-70
2021/12/03 03:29:32;;;;;;;;;;;24.30;99.90;;;;;;5056664;28;19928;-71
2021/12/03 03:31:59;;;;;;;;;;;24.20;99.90;;;;;;5057710;28;20299;-70
2021/12/03 03:34:26;;;;;;;;;;;23.90;99.90;;;;;;5047291;28;19913;-68
2021/12/03 03:36:53;;;;;;;;;;;23.80;99.90;;;;;;5056892;28;19980;-67
2021/12/03 03:39:20;;;;;;;;;;;23.80;99.90;;;;;;5065744;28;20283;-68
2021/12/03 03:41:47;;;;;;;;;;;23.70;99.90;;;;;;5053754;28;19924;-67
2021/12/03 03:44:15;;;;;;;;;;;23.70;99.90;;;;;;5066113;28;20393;-74
2021/12/03 03:46:43;;;;;;;;;;;23.60;99.90;;;;;;5056433;28;19913;-69
2021/12/03 03:49:10;;;;;;;;;;;23.50;99.90;;;;;;5057457;28;19917;-67
2021/12/03 03:51:37;;;;;;;;;;;23.50;99.90;;;;;;5056213;28;19917;-68
2021/12/03 03:54:04;;;;;;;;;;;23.60;99.90;;;;;;5056944;28;20311;-68
2021/12/03 03:56:31;;;;;;;;;;;23.50;99.90;;;;;;5056077;28;19923;-69
2021/12/03 03:58:57;;;;;;;;;;;23.40;99.90;;;;;;5057344;28;20003;-67
2021/12/03 04:01:24;;;;;;;;;;;23.50;99.90;;;;;;5038086;28;19920;-70
2021/12/03 04:03:51;;;;;;;;;;;23.60;99.90;;;;;;5056978;28;19942;-67
2021/12/03 04:06:18;;;;;;;;;;;23.50;99.90;;;;;;5055638;28;19912;-67
2021/12/03 04:08:45;;;;;;;;;;;23.70;99.90;;;;;;5065405;28;19991;-68
2021/12/03 04:11:12;;;;;;;;;;;23.50;99.90;;;;;;5073657;28;19916;-68
2021/12/03 04:13:39;;;;;;;;;;;23.30;99.90;;;;;;5073212;28;19924;-67
2021/12/03 04:16:06;;;;;;;;;;;23.10;99.90;;;;;;5073364;28;20061;-70
2021/12/03 04:18:32;;;;;;;;;;;23.00;99.90;;;;;;5073136;28;20278;-67
2021/12/03 04:20:59;;;;;;;;;;;22.90;99.90;;;;;;5072986;28;20366;-67
2021/12/03 04:23:26;;;;;;;;;;;22.80;99.90;;;;;;5071825;28;20375;-67
2021/12/03 04:25:52;;;;;;;;;;;22.70;99.90;;;;;;5072943;28;19931;-68
2021/12/03 04:28:20;;;;;;;;;;;22.50;99.90;;;;;;5073681;28;20400;-69
2021/12/03 04:30:47;;;;;;;;;;;22.10;99.90;;;;;;5073369;28;20374;-68
2021/12/03 04:33:14;;;;;;;;;;;21.90;99.90;;;;;;5073150;28;19982;-74
2021/12/03 04:35:41;;;;;;;;;;;21.70;99.90;;;;;;5072836;28;20350;-71
2021/12/03 04:38:08;;;;;;;;;;;21.60;99.90;;;;;;5072908;28;20560;-71
2021/12/03 04:40:35;;;;;;;;;;;21.70;99.90;;;;;;5068935;28;20282;-72
2021/12/03 04:43:02;;;;;;;;;;;21.80;99.90;;;;;;5073233;28;19913;-74
2021/12/03 04:45:29;;;;;;;;;;;21.60;99.90;;;;;;5072667;28;19920;-72
2021/12/03 04:47:57;;;;;;;;;;;21.50;99.90;;;;;;5063963;28;19960;-70
2021/12/03 04:50:24;;;;;;;;;;;21.40;99.90;;;;;;5072598;28;19913;-70
2021/12/03 04:52:52;;;;;;;;;;;21.30;99.90;;;;;;5073025;28;20324;-69
2021/12/03 04:55:19;;;;;;;;;;;21.30;99.90;;;;;;5072553;28;19917;-74
2021/12/03 04:57:46;;;;;;;;;;;21.30;99.90;;;;;;5072536;28;19919;-70
2021/12/03 05:00:16;;;;;;;;;;;21.30;99.90;;;;;;5072408;28;19966;-74
2021/12/03 05:02:43;;;;;;;;;;;21.20;99.90;;;;;;5072551;28;19913;-73
2021/12/03 05:05:10;;;;;;;;;;;21.10;99.90;;;;;;5072348;28;19912;-67
2021/12/03 05:07:53;;;;;;;;;;;21.00;99.90;;;;;;5071222;28;19966;-67
2021/12/03 05:10:20;;;;;;;;;;;20.80;99.90;;;;;;5058547;28;20378;-67
2021/12/03 05:12:47;;;;;;;;;;;20.70;99.90;;;;;;5064912;28;20458;-67
2021/12/03 05:15:14;;;;;;;;;;;20.70;99.90;;;;;;5054620;28;19958;-67
2021/12/03 05:17:40;;;;;;;;;;;20.70;99.90;;;;;;5055583;28;20409;-67
2021/12/03 05:20:07;;;;;;;;;;;20.80;99.90;;;;;;5054498;28;19913;-66
2021/12/03 05:22:34;;;;;;;;;;;20.90;99.90;;;;;;5055438;28;20322;-66
2021/12/03 05:25:00;;;;;;;;;;;20.80;99.90;;;;;;5054400;28;19959;-67
2021/12/03 05:27:27;;;;;;;;;;;20.90;99.90;;;;;;5056438;28;20363;-68
2021/12/03 05:29:54;;;;;;;;;;;20.90;99.90;;;;;;5053876;28;20350;-68
2021/12/03 05:32:20;;;;;;;;;;;20.70;99.90;;;;;;5055672;28;19968;-67
2021/12/03 05:34:47;;;;;;;;;;;20.60;99.90;;;;;;5053572;28;19920;-69
2021/12/03 05:37:14;;;;;;;;;;;20.60;99.90;;;;;;5053742;28;19913;-68
2021/12/03 05:39:41;;;;;;;;;;;20.60;99.90;;;;;;5054218;28;19912;-68
2021/12/03 05:42:08;;;;;;;;;;;20.60;99.90;;;;;;5054104;28;19912;-70
2021/12/03 05:44:35;;;;;;;;;;;20.60;99.90;;;;;;5054897;28;19913;-70
2021/12/03 05:47:01;;;;;;;;;;;20.50;99.90;;;;;;5054225;28;19912;-67
2021/12/03 05:49:28;;;;;;;;;;;20.50;99.90;;;;;;5054882;28;19917;-66
2021/12/03 05:51:56;;;;;;;;;;;20.40;99.90;;;;;;5051672;28;19928;-70
2021/12/03 05:54:22;;;;;;;;;;;20.40;99.90;;;;;;5051453;28;19927;-67
2021/12/03 05:56:49;;;;;;;;;;;20.40;99.90;;;;;;5051782;28;20381;-66
2021/12/03 05:59:16;;;;;;;;;;;20.30;99.90;;;;;;5052635;28;19960;-68
2021/12/03 06:01:42;;;;;;;;;;;20.30;99.90;;;;;;5051530;28;19958;-66
2021/12/03 06:04:09;;;;;;;;;;;20.20;99.90;;;;;;5052193;28;19947;-67
2021/12/03 06:06:36;;;;;;;;;;;20.30;99.90;;;;;;5051562;28;20010;-67
2021/12/03 06:09:03;;;;;;;;;;;20.40;99.90;;;;;;5060994;28;19936;-71
2021/12/03 06:11:30;;;;;;;;;;;20.40;99.90;;;;;;5051304;28;19924;-67
2021/12/03 06:13:56;;;;;;;;;;;20.50;99.90;;;;;;5051652;28;20382;-68
2021/12/03 06:16:26;;;;;;;;;;;20.30;99.90;;;;;;5050934;28;20216;-68
2021/12/03 06:18:53;;;;;;;;;;;20.40;99.90;;;;;;5050949;28;19974;-73
2021/12/03 06:21:20;;;;;;;;;;;20.40;99.90;;;;;;5052103;28;19924;-65
2021/12/03 06:23:47;;;;;;;;;;;20.30;99.90;;;;;;5050912;28;20047;-67
2021/12/03 06:26:14;;;;;;;;;;;20.20;99.90;;;;;;5052227;28;19917;-67
2021/12/03 06:28:41;;;;;;;;;;;20.20;99.90;;;;;;5051835;28;19939;-71
2021/12/03 06:31:08;;;;;;;;;;;20.20;99.90;;;;;;5051752;28;19913;-71
2021/12/03 06:33:35;;;;;;;;;;;20.20;99.90;;;;;;5050630;28;19920;-70
2021/12/03 06:36:03;;;;;;;;;;;20.10;99.90;;;;;;5052555;28;19920;-68
2021/12/03 06:38:31;;;;;;;;;;;20.00;99.90;;;;;;5048601;28;19917;-68
2021/12/03 06:40:57;;;;;;;;;;;20.00;99.90;;;;;;5052703;28;19928;-69
2021/12/03 06:43:24;;;;;;;;;;;20.00;99.90;;;;;;5050776;28;19913;-69
2021/12/03 06:45:51;;;;;;;;;;;20.00;99.90;;;;;;5051620;28;20375;-73
2021/12/03 06:48:17;;;;;;;;;;;20.00;99.90;;;;;;5050927;28;19923;-72
2021/12/03 06:50:45;;;;;;;;;;;20.00;99.90;;;;;;5051879;28;19920;-74
2021/12/03 06:53:16;;;;;;;;;;;19.80;99.90;;;;;;5051469;28;19990;-69
2021/12/03 06:55:55;;;;;;;;;;;19.80;99.90;;;;;;5051132;28;20358;-69
2021/12/03 06:58:22;;;;;;;;;;;19.70;99.90;;;;;;5042450;28;19963;-68
2021/12/03 07:00:50;;;;;;;;;;;19.70;99.90;;;;;;5051737;28;19996;-70
2021/12/03 07:03:17;;;;;;;;;;;19.70;99.90;;;;;;5050753;28;20007;-72
2021/12/03 07:05:43;;;;;;;;;;;19.60;99.90;;;;;;5051066;28;19921;-67
2021/12/03 07:08:10;;;;;;;;;;;19.60;99.90;;;;;;5056934;28;20375;-72
2021/12/03 07:10:37;;;;;;;;;;;19.50;99.90;;;;;;5050504;28;19920;-72
2021/12/03 07:13:05;;;;;;;;;;;19.50;99.90;;;;;;5052831;28;19929;-69
2021/12/03 07:15:32;;;;;;;;;;;19.40;99.90;;;;;;5051016;28;19920;-67
2021/12/03 07:17:59;;;;;;;;;;;19.40;99.90;;;;;;5051620;28;19994;-71
2021/12/03 07:20:26;;;;;;;;;;;19.40;99.90;;;;;;5050942;28;19912;-70
2021/12/03 07:22:54;;;;;;;;;;;19.40;99.90;;;;;;5051453;28;20540;-73
2021/12/03 07:25:21;;;;;;;;;;;19.30;99.90;;;;;;5050929;28;19917;-72
2021/12/03 07:27:48;;;;;;;;;;;19.40;99.90;;;;;;5052087;28;19967;-72
2021/12/03 07:30:15;;;;;;;;;;;19.40;99.90;;;;;;5050639;28;20312;-72
2021/12/03 07:32:43;;;;;;;;;;;19.40;99.90;;;;;;5051853;28;19960;-70
2021/12/03 07:35:09;;;;;;;;;;;19.50;99.90;;;;;;5032446;28;19924;-68
2021/12/03 07:37:36;;;;;;;;;;;19.50;99.90;;;;;;5052270;28;19974;-68
2021/12/03 07:40:04;;;;;;;;;;;19.50;99.90;;;;;;5050483;28;19917;-70
2021/12/03 07:42:32;;;;;;;;;;;19.40;99.90;;;;;;5050738;28;19928;-70
2021/12/03 07:44:58;;;;;;;;;;;19.30;99.90;;;;;;5058475;28;20287;-71
2021/12/03 07:47:25;;;;;;;;;;;19.30;99.90;;;;;;5050781;28;19928;-71
2021/12/03 07:49:52;;;;;;;;;;;19.30;99.90;;;;;;5051253;28;19916;-69
2021/12/03 07:52:20;;;;;;;;;;;19.30;99.90;;;;;;5050690;28;19925;-68
2021/12/03 07:54:48;;;;;;;;;;;19.30;99.90;;;;;;5051713;28;19943;-68
2021/12/03 07:57:15;;;;;;;;;;;19.30;99.90;;;;;;5051253;28;19917;-67
2021/12/03 07:59:42;;;;;;;;;;;19.20;99.90;;;;;;5055184;28;20003;-69
2021/12/03 08:02:10;;;;;;;;;;;19.10;99.90;;;;;;5052680;28;19920;-70
2021/12/03 08:04:36;;;;;;;;;;;19.00;99.90;;;;;;5037199;28;19954;-69
2021/12/03 08:07:03;;;;;;;;;;;19.00;99.90;;;;;;5054926;28;19917;-69
2021/12/03 08:09:30;;;;;;;;;;;19.00;99.90;;;;;;5068816;28;19920;-69
2021/12/03 08:11:56;;;;;;;;;;;19.10;99.90;;;;;;5072166;28;20333;-67
2021/12/03 08:14:23;;;;;;;;;;;19.00;99.90;;;;;;5072837;28;19919;-68
2021/12/03 08:16:50;;;;;;;;;;;19.00;99.90;;;;;;5073534;28;20350;-71
2021/12/03 08:19:17;;;;;;;;;;;18.90;99.90;;;;;;5073108;28;19913;-68
2021/12/03 08:21:43;;;;;;;;;;;18.90;99.90;;;;;;5073418;28;19913;-69
2021/12/03 08:24:10;;;;;;;;;;;18.90;99.90;;;;;;5072768;28;20427;-67
2021/12/03 08:26:37;;;;;;;;;;;18.70;99.90;;;;;;5072897;28;19985;-69
2021/12/03 08:29:05;;;;;;;;;;;18.70;99.90;;;;;;5072330;28;20359;-69
2021/12/03 08:31:31;;;;;;;;;;;18.70;99.90;;;;;;5072935;28;19931;-68
2021/12/03 08:33:58;;;;;;;;;;;18.60;99.90;;;;;;5072336;28;20353;-68
2021/12/03 08:36:25;;;;;;;;;;;18.60;99.90;;;;;;5070607;28;20252;-70
2021/12/03 08:38:52;;;;;;;;;;;18.60;99.90;;;;;;5067387;28;19912;-68
2021/12/03 08:41:19;;;;;;;;;;;18.60;99.90;;;;;;5072696;28;19936;-67
2021/12/03 08:43:46;;;;;;;;;;;18.60;99.90;;;;;;5072989;28;19912;-69
2021/12/03 08:46:22;;;;;;;;;;;18.50;99.90;;;;;;5072446;28;19916;-70
2021/12/03 08:48:49;;;;;;;;;;;18.40;99.90;;;;;;5073203;28;19913;-67
2021/12/03 08:56:56;;;;;;;;;;;18.30;99.90;;;;;;5073343;28;19920;-72
2021/12/03 08:59:23;;;;;;;;;;;18.20;99.90;;;;;;5072132;28;20255;-67
2021/12/03 09:01:50;;;;;;;;;;;18.20;99.90;;;;;;5072556;28;19938;-68
2021/12/03 09:04:17;;;;;;;;;;;18.20;99.90;;;;;;5072409;28;19920;-66
2021/12/03 09:06:43;;;;;;;;;;;18.30;99.90;;;;;;5071103;28;19917;-68
2021/12/03 09:09:10;;;;;;;;;;;18.20;99.90;;;;;;5071765;28;20004;-67
2021/12/03 09:11:37;;;;;;;;;;;18.10;99.90;;;;;;5075859;28;19935;-71
2021/12/03 09:14:13;;;;;;;;;;;18.10;99.90;;;;;;5076845;28;19923;-68
2021/12/03 09:16:40;;;;;;;;;;;18.20;99.90;;;;;;5071843;28;19913;-68
2021/12/03 09:19:16;;;;;;;;;;;18.20;99.90;;;;;;5072145;28;19917;-69
2021/12/03 09:21:42;;;;;;;;;;;18.10;99.90;;;;;;5072080;28;19919;-68
2021/12/03 09:24:12;;;;;;;;;;;18.10;99.90;;;;;;5071726;28;19920;-70
2021/12/03 09:26:41;;;;;;;;;;;18.10;99.90;;;;;;5068350;28;19916;-67
2021/12/03 09:29:15;;;;;;;;;;;18.10;99.90;;;;;;5070037;28;20283;-68
2021/12/03 09:31:43;;;;;;;;;;;18.10;99.90;;;;;;5069854;28;20568;-66
2021/12/03 09:34:11;;;;;;;;;;;18.20;99.90;;;;;;5069644;28;19913;-65
2021/12/03 09:36:41;;;;;;;;;;;18.10;99.90;;;;;;5068158;28;20356;-69
2021/12/03 09:39:15;;;;;;;;;;;18.10;99.90;;;;;;5069775;28;19912;-66
2021/12/03 09:41:42;;;;;;;;;;;18.10;99.90;;;;;;5069058;28;20286;-70
2021/12/03 09:44:09;;;;;;;;;;;18.10;99.90;;;;;;5069382;28;19920;-71
2021/12/03 09:46:35;;;;;;;;;;;18.20;99.90;;;;;;5069463;28;19916;-68
2021/12/03 09:52:00;;;;;;;;;;;18.20;99.90;;;;;;5069092;28;19923;-69
2021/12/03 09:54:39;;;;;;;;;;;18.20;99.90;;;;;;5069223;28;20342;-69
2021/12/03 09:57:11;;;;;;;;;;;18.20;99.90;;;;;;5069158;28;19913;-69
2021/12/03 10:13:33;;;;;;;;;;;18.40;99.90;;;;;;5068865;28;19924;-70
2021/12/03 10:16:57;;;;;;;;;;;18.40;99.90;;;;;;5068765;28;20382;-68
2021/12/03 10:19:02;;;;;;;;;;;18.40;99.90;;;;;;5060772;28;19919;-67
2021/12/03 10:21:52;;;;;;;;;;;18.40;99.90;;;;;;5068388;28;19913;-69
2021/12/03 10:30:42;;;;;;;;;;;18.50;99.90;;;;;;5068790;28;19916;-66
2021/12/03 10:38:49;;;;;;;;;;;18.50;99.90;;;;;;5067671;28;19916;-70
2021/12/03 10:52:15;;;;;;;;;;;18.60;99.90;;;;;;5068639;28;19917;-69
2021/12/03 11:06:25;;;;;;;;;;;18.70;99.90;;;;;;5060074;28;19916;-65
2021/12/03 11:15:39;;;;;;;;;;;18.80;99.90;;;;;;5066700;28;19966;-68
2021/12/03 11:56:12;;;;;;;;;;;18.80;99.90;;;;;;5071750;28;19959;-72
2021/12/03 12:29:20;;;;;;;;;;;18.50;99.90;;;;;;5054100;28;19989;-69
2021/12/03 12:47:20;;;;;;;;;;;18.40;99.90;;;;;;5050639;28;20660;-69
2021/12/03 14:37:42;;;;;;;;;;;18.30;99.90;;;;;;5050041;28;19928;-70
2021/12/03 14:45:28;;;;;;;;;;;18.30;99.90;;;;;;5053556;28;19949;-69
2021/12/03 14:53:36;;;;;;;;;;;18.30;99.90;;;;;;5049673;28;19927;-69
2021/12/03 14:56:04;;;;;;;;;;;18.30;99.90;;;;;;5053960;28;19913;-70
2021/12/03 14:58:54;;;;;;;;;;;18.40;99.90;;;;;;5053250;28;19921;-69
2021/12/03 15:06:45;;;;;;;;;;;18.40;99.90;;;;;;5053568;28;19913;-70
2021/12/03 15:09:26;;;;;;;;;;;18.40;99.90;;;;;;5070252;28;19920;-72
2021/12/03 15:22:50;;;;;;;;;;;18.40;99.90;;;;;;5074335;28;20872;-68
2021/12/03 15:32:48;;;;;;;;;;;18.40;99.90;;;;;;5072087;28;20374;-69
2021/12/03 15:35:28;;;;;;;;;;;18.30;99.90;;;;;;5074366;28;20532;-67
2021/12/03 16:04:33;;;;;;;;;;;18.20;99.90;;;;;;5074075;28;19919;-67
2021/12/03 16:23:01;;;;;;;;;;;18.30;99.90;;;;;;5056105;28;20279;-66
2021/12/03 16:54:14;;;;;;;;;;;18.20;99.90;;;;;;5056430;28;19956;-67
2021/12/03 16:56:50;;;;;;;;;;;18.20;99.90;;;;;;5055526;28;19978;-69
2021/12/03 16:59:17;;;;;;;;;;;18.20;99.90;;;;;;5052969;28;19963;-68
2021/12/03 17:01:53;;;;;;;;;;;18.20;99.90;;;;;;5055201;28;19912;-67
2021/12/03 17:15:46;;;;;;;;;;;18.20;99.90;;;;;;5072595;28;19954;-67
2021/12/03 17:30:41;;;;;;;;;;;18.10;99.90;;;;;;5071306;28;20367;-68
2021/12/03 17:44:38;;;;;;;;;;;18.10;99.90;;;;;;5071671;28;19923;-66
2021/12/03 17:58:28;;;;;;;;;;;18.10;99.90;;;;;;5072160;28;20473;-70
2021/12/03 18:08:27;;;;;;;;;;;18.20;99.90;;;;;;5070203;28;19925;-67
2021/12/03 18:11:27;;;;;;;;;;;18.20;99.90;;;;;;5054999;28;19999;-68
2021/12/03 18:19:40;;;;;;;;;;;18.20;99.90;;;;;;5053877;28;20412;-69
2021/12/03 18:51:50;;;;;;;;;;;18.10;99.90;;;;;;5054415;28;19912;-70
2021/12/03 18:54:27;;;;;;;;;;;18.10;99.90;;;;;;5054299;28;19917;-71
2021/12/03 18:56:56;;;;;;;;;;;18.10;99.90;;;;;;5059916;28;19913;-68
2021/12/03 18:59:26;;;;;;;;;;;18.10;99.90;;;;;;5050572;28;19913;-71
2021/12/03 19:01:53;;;;;;;;;;;18.10;99.90;;;;;;5053769;28;19912;-70
2021/12/03 19:09:25;;;;;;;;;;;18.10;99.90;;;;;;5067073;28;19921;-71
2021/12/03 19:12:00;;;;;;;;;;;;;;;;;;;;;
2021/12/03 19:14:22;;;;;;;;;;;18.10;99.90;;;;;;5071007;28;19921;-72
2021/12/03 19:16:49;;;;;;;;;;;18.10;99.90;;;;;;5071009;28;19952;-71
2021/12/03 19:19:16;;;;;;;;;;;18.10;99.90;;;;;;5070477;28;19946;-72
2021/12/03 19:21:44;;;;;;;;;;;18.10;99.90;;;;;;5070641;28;20381;-70
2021/12/03 19:24:13;;;;;;;;;;;18.10;99.90;;;;;;5070500;28;19918;-70
2021/12/03 19:26:44;;;;;;;;;;;18.10;99.90;;;;;;5069443;28;19912;-68
2021/12/03 19:29:12;;;;;;;;;;;18.10;99.90;;;;;;5070435;28;19991;-71
2021/12/03 19:31:39;;;;;;;;;;;18.10;99.90;;;;;;5069755;28;19913;-73
2021/12/03 19:34:06;;;;;;;;;;;18.10;99.90;;;;;;5070145;28;20011;-72
2021/12/03 19:36:39;;;;;;;;;;;18.10;99.90;;;;;;5070611;28;19920;-72
2021/12/03 19:39:06;;;;;;;;;;;18.10;99.90;;;;;;5070363;28;19913;-72
2021/12/03 19:44:10;;;;;;;;;;;18.00;99.90;;;;;;5069999;28;19920;-71
2021/12/03 19:46:41;;;;;;;;;;;18.00;99.90;;;;;;5070556;28;19927;-68
2021/12/03 19:49:32;;;;;;;;;;;17.90;99.90;;;;;;5070214;28;19913;-70
2021/12/03 19:52:06;;;;;;;;;;;17.90;99.90;;;;;;5064393;28;19920;-71
2021/12/03 19:54:33;;;;;;;;;;;17.90;99.90;;;;;;5072193;28;20398;-70
2021/12/03 19:56:59;;;;;;;;;;;18.00;99.90;;;;;;5068170;28;19916;-72
2021/12/03 19:59:26;;;;;;;;;;;17.90;99.90;;;;;;5073639;28;19917;-71
2021/12/03 20:01:53;;;;;;;;;;;17.90;99.90;;;;;;5073977;28;19955;-72
2021/12/03 20:04:20;;;;;;;;;;;18.00;99.90;;;;;;5073858;28;20423;-73
2021/12/03 20:06:46;;;;;;;;;;;18.00;99.90;;;;;;5073774;28;19942;-71
2021/12/03 20:09:21;;;;;;;;;;;18.00;99.90;;;;;;5073456;28;19920;-72
2021/12/03 20:11:53;;;;;;;;;;;18.00;99.90;;;;;;5073538;28;19928;-68
2021/12/03 20:14:22;;;;;;;;;;;18.00;99.90;;;;;;5073528;28;19923;-69
2021/12/03 20:22:21;;;;;;;;;;;18.10;99.90;;;;;;5072680;28;19916;-71
2021/12/03 20:27:46;;;;;;;;;;;18.10;99.90;;;;;;5068169;28;19944;-69
2021/12/03 20:30:25;;;;;;;;;;;18.20;99.90;;;;;;5070971;28;19913;-69
2021/12/03 20:38:03;;;;;;;;;;;18.30;99.90;;;;;;5069268;28;19968;-69
2021/12/03 20:40:33;;;;;;;;;;;18.30;99.90;;;;;;5073108;28;20371;-70
2021/12/03 20:50:39;;;;;;;;;;;18.20;99.90;;;;;;5073335;28;19913;-71
2021/12/03 20:53:18;;;;;;;;;;;18.20;99.90;;;;;;5072899;28;19920;-67
2021/12/03 21:09:13;;;;;;;;;;;18.50;99.90;;;;;;5072470;28;19966;-72
2021/12/03 21:11:48;;;;;;;;;;;18.60;99.90;;;;;;5072381;28;19927;-72
2021/12/03 21:14:18;;;;;;;;;;;18.60;99.90;;;;;;5072516;28;19920;-72
2021/12/03 21:16:57;;;;;;;;;;;18.60;99.90;;;;;;5072761;28;19983;-72
2021/12/03 21:19:45;;;;;;;;;;;18.60;99.90;;;;;;5072266;28;19928;-67
2021/12/03 21:22:23;;;;;;;;;;;18.70;99.90;;;;;;5066466;28;19917;-71
2021/12/03 21:24:55;;;;;;;;;;;18.60;99.90;;;;;;5068604;28;19958;-69
2021/12/03 21:27:31;;;;;;;;;;;18.60;99.90;;;;;;5072131;28;19937;-71
2021/12/03 21:32:42;;;;;;;;;;;18.70;99.90;;;;;;5071975;28;19921;-70
2021/12/03 21:43:25;;;;;;;;;;;18.90;99.90;;;;;;5069463;28;20381;-69
2021/12/03 21:45:53;;;;;;;;;;;18.80;99.90;;;;;;5071773;28;20351;-71
2021/12/03 21:48:20;;;;;;;;;;;18.90;99.90;;;;;;5072025;28;19912;-71
2021/12/03 21:50:46;;;;;;;;;;;18.90;99.90;;;;;;5071811;28;20091;-72
2021/12/03 21:53:13;;;;;;;;;;;18.90;99.90;;;;;;5071489;28;19978;-72
2021/12/03 21:55:45;;;;;;;;;;;18.90;99.90;;;;;;5071684;28;19919;-67
2021/12/03 21:58:12;;;;;;;;;;;18.90;99.90;;;;;;5071280;28;19922;-68
2021/12/03 22:00:40;;;;;;;;;;;18.90;99.90;;;;;;5071791;28;19913;-71
2021/12/03 22:03:07;;;;;;;;;;;19.00;99.90;;;;;;5071183;28;20274;-69
2021/12/03 22:05:34;;;;;;;;;;;19.10;99.90;;;;;;5071702;28;19916;-71
2021/12/03 22:08:01;;;;;;;;;;;19.00;99.90;;;;;;5066822;28;20003;-71
2021/12/03 22:10:27;;;;;;;;;;;18.90;99.90;;;;;;5054534;28;19970;-71
2021/12/03 22:12:54;;;;;;;;;;;19.00;99.90;;;;;;5053918;28;19939;-67
2021/12/03 22:15:21;;;;;;;;;;;19.10;99.90;;;;;;5054794;28;19917;-70
2021/12/03 22:17:48;;;;;;;;;;;19.10;99.90;;;;;;5053288;28;19909;-68
2021/12/03 22:20:14;;;;;;;;;;;19.10;99.90;;;;;;5035831;28;19920;-67
2021/12/03 22:22:41;;;;;;;;;;;19.20;99.90;;;;;;5053932;28;19916;-68
2021/12/03 22:25:08;;;;;;;;;;;19.20;99.90;;;;;;5054611;28;20306;-68
2021/12/03 22:27:35;;;;;;;;;;;19.10;99.90;;;;;;5036408;28;19916;-71
2021/12/03 22:30:01;;;;;;;;;;;19.10;99.90;;;;;;5056909;28;19923;-68
2021/12/03 22:32:28;;;;;;;;;;;19.10;99.90;;;;;;5059551;28;20027;-68
2021/12/03 22:34:55;;;;;;;;;;;19.10;99.90;;;;;;5054606;28;19948;-72
2021/12/03 22:37:21;;;;;;;;;;;19.10;99.90;;;;;;5053118;28;19917;-67
2021/12/03 22:39:48;;;;;;;;;;;19.10;99.90;;;;;;5053217;28;19913;-68
2021/12/03 22:42:16;;;;;;;;;;;19.20;99.90;;;;;;5054026;28;19913;-71
2021/12/03 22:44:43;;;;;;;;;;;19.20;99.90;;;;;;5053424;28;20260;-71
2021/12/03 22:47:19;;;;;;;;;;;19.20;99.90;;;;;;5060138;28;19913;-67
2021/12/03 22:52:19;;;;;;;;;;;19.00;99.90;;;;;;5054137;28;19921;-71